sensor_id;sensor_type;location;lat;lon;timestamp;pressure;altitude;pressure_sealevel;temperature;humidity
10940;BME280;5522;42.696;23.494;2024-02-28T00:00:05;53701.03;;;-139.68;100.00
10940;BME280;5522;42.696;23.494;2024-02-28T00:02:36;53699.03;;;-139.68;100.00
10940;BME280;5522;42.696;23.494;2024-02-28T00:05:04;53703.03;;;-139.68;100.00
10940;BME280;5522;42.696;23.494;2024-02-28T00:07:31;53707.06;;;-139.68;100.00
10940;BME280;5522;42.696;23.494;2024-02-28T00:09:58;53707.06;;;-139.68;100.00
10940;BME280;5522;42.696;23.494;2024-02-28T00:12:25;53711.09;;;-139.68;100.00
10940;BME280;5522;42.696;23.494;2024-02-28T00:14:52;53703.03;;;-139.68;100.00
10940;BME280;5522;42.696;23.494;2024-02-28T00:17:18;53703.03;;;-139.68;100.00
10940;BME280;5522;42.696;23.494;2024-02-28T00:19:45;53693.00;;;-139.68;100.00
10940;BME280;5522;42.696;23.494;2024-02-28T00:22:13;53723.13;;;-139.68;100.00
10940;BME280;5522;42.696;23.494;2024-02-28T00:24:40;53715.09;;;-139.68;100.00
10940;BME280;5522;42.696;23.494;2024-02-28T00:27:07;53749.28;;;-139.68;100.00
10940;BME280;5522;42.696;23.494;2024-02-28T00:29:34;53705.06;;;-139.68;100.00
10940;BME280;5522;42.696;23.494;2024-02-28T00:32:02;53697.00;;;-139.68;100.00
10940;BME280;5522;42.696;23.494;2024-02-28T00:34:28;53707.06;;;-139.68;100.00
10940;BME280;5522;42.696;23.494;2024-02-28T00:36:55;53709.06;;;-139.68;100.00
10940;BME280;5522;42.696;23.494;2024-02-28T00:39:23;53705.06;;;-139.68;100.00
10940;BME280;5522;42.696;23.494;2024-02-28T00:41:50;53715.09;;;-139.68;100.00
10940;BME280;5522;42.696;23.494;2024-02-28T00:44:18;53713.09;;;-139.68;100.00
10940;BME280;5522;42.696;23.494;2024-02-28T00:46:45;53688.97;;;-139.68;100.00
10940;BME280;5522;42.696;23.494;2024-02-28T00:49:11;53711.09;;;-139.68;100.00
10940;BME280;5522;42.696;23.494;2024-02-28T00:51:38;53717.13;;;-139.68;100.00
10940;BME280;5522;42.696;23.494;2024-02-28T00:54:05;53711.09;;;-139.68;100.00
10940;BME280;5522;42.696;23.494;2024-02-28T00:56:34;53735.19;;;-139.68;100.00
10940;BME280;5522;42.696;23.494;2024-02-28T00:59:01;53699.03;;;-139.68;100.00
10940;BME280;5522;42.696;23.494;2024-02-28T01:07:03;53684.94;;;-139.68;100.00
10940;BME280;5522;42.696;23.494;2024-02-28T01:09:30;53693.00;;;-139.68;100.00
10940;BME280;5522;42.696;23.494;2024-02-28T01:11:58;53690.97;;;-139.68;100.00
10940;BME280;5522;42.696;23.494;2024-02-28T01:14:25;53697.00;;;-139.68;100.00
10940;BME280;5522;42.696;23.494;2024-02-28T01:16:51;53729.16;;;-139.68;100.00
10940;BME280;5522;42.696;23.494;2024-02-28T01:19:18;53715.09;;;-139.68;100.00
10940;BME280;5522;42.696;23.494;2024-02-28T01:21:45;53729.16;;;-139.68;100.00
10940;BME280;5522;42.696;23.494;2024-02-28T01:24:12;53737.22;;;-139.68;100.00
10940;BME280;5522;42.696;23.494;2024-02-28T01:26:39;53731.19;;;-139.68;100.00
10940;BME280;5522;42.696;23.494;2024-02-28T01:29:08;53711.09;;;-139.68;100.00
10940;BME280;5522;42.696;23.494;2024-02-28T01:31:34;53715.09;;;-139.68;100.00
10940;BME280;5522;42.696;23.494;2024-02-28T01:34:01;53733.19;;;-139.68;100.00
10940;BME280;5522;42.696;23.494;2024-02-28T01:36:28;53725.16;;;-139.68;100.00
10940;BME280;5522;42.696;23.494;2024-02-28T01:38:55;53727.16;;;-139.68;100.00
10940;BME280;5522;42.696;23.494;2024-02-28T01:41:21;53707.06;;;-139.68;100.00
10940;BME280;5522;42.696;23.494;2024-02-28T01:43:48;53684.94;;;-139.68;100.00
10940;BME280;5522;42.696;23.494;2024-02-28T01:46:23;53773.41;;;-139.68;100.00
10940;BME280;5522;42.696;23.494;2024-02-28T01:48:51;53733.19;;;-139.68;100.00
10940;BME280;5522;42.696;23.494;2024-02-28T01:51:19;53735.19;;;-139.68;100.00
10940;BME280;5522;42.696;23.494;2024-02-28T01:53:48;53761.34;;;-139.68;100.00
10940;BME280;5522;42.696;23.494;2024-02-28T01:56:16;53717.13;;;-139.68;100.00
10940;BME280;5522;42.696;23.494;2024-02-28T01:58:45;53723.13;;;-139.68;100.00
10940;BME280;5522;42.696;23.494;2024-02-28T02:01:13;53697.00;;;-139.68;100.00
10940;BME280;5522;42.696;23.494;2024-02-28T02:03:42;53739.22;;;-139.68;100.00
10940;BME280;5522;42.696;23.494;2024-02-28T02:06:09;53711.09;;;-139.68;100.00
10940;BME280;5522;42.696;23.494;2024-02-28T02:08:37;53699.03;;;-139.68;100.00
10940;BME280;5522;42.696;23.494;2024-02-28T02:11:04;53747.25;;;-139.68;100.00
10940;BME280;5522;42.696;23.494;2024-02-28T02:13:31;53727.16;;;-139.68;100.00
10940;BME280;5522;42.696;23.494;2024-02-28T02:15:58;53735.19;;;-139.68;100.00
10940;BME280;5522;42.696;23.494;2024-02-28T02:18:26;53703.03;;;-139.68;100.00
10940;BME280;5522;42.696;23.494;2024-02-28T02:21:03;53719.13;;;-139.68;100.00
10940;BME280;5522;42.696;23.494;2024-02-28T02:23:32;53721.13;;;-139.68;100.00
10940;BME280;5522;42.696;23.494;2024-02-28T02:26:01;53745.25;;;-139.68;100.00
10940;BME280;5522;42.696;23.494;2024-02-28T02:28:27;53737.22;;;-139.68;100.00
10940;BME280;5522;42.696;23.494;2024-02-28T02:30:54;53761.34;;;-139.68;100.00
10940;BME280;5522;42.696;23.494;2024-02-28T02:33:21;53743.25;;;-139.68;100.00
10940;BME280;5522;42.696;23.494;2024-02-28T02:35:47;53757.31;;;-139.68;100.00
10940;BME280;5522;42.696;23.494;2024-02-28T02:38:14;53703.03;;;-139.68;100.00
10940;BME280;5522;42.696;23.494;2024-02-28T02:40:43;53735.19;;;-139.68;100.00
10940;BME280;5522;42.696;23.494;2024-02-28T02:43:11;53719.13;;;-139.68;100.00
10940;BME280;5522;42.696;23.494;2024-02-28T02:45:38;53717.13;;;-139.68;100.00
10940;BME280;5522;42.696;23.494;2024-02-28T02:48:05;53699.03;;;-139.68;100.00
10940;BME280;5522;42.696;23.494;2024-02-28T02:50:32;53723.13;;;-139.68;100.00
10940;BME280;5522;42.696;23.494;2024-02-28T02:52:59;53729.16;;;-139.68;100.00
10940;BME280;5522;42.696;23.494;2024-02-28T02:55:25;53719.13;;;-139.68;100.00
10940;BME280;5522;42.696;23.494;2024-02-28T02:57:53;53719.13;;;-139.68;100.00
10940;BME280;5522;42.696;23.494;2024-02-28T03:00:21;53739.22;;;-139.68;100.00
10940;BME280;5522;42.696;23.494;2024-02-28T03:02:48;53759.31;;;-139.68;100.00
10940;BME280;5522;42.696;23.494;2024-02-28T03:05:15;53737.22;;;-139.68;100.00
10940;BME280;5522;42.696;23.494;2024-02-28T03:07:42;53711.09;;;-139.68;100.00
10940;BME280;5522;42.696;23.494;2024-02-28T03:10:08;53725.16;;;-139.68;100.00
10940;BME280;5522;42.696;23.494;2024-02-28T03:12:35;53737.22;;;-139.68;100.00
10940;BME280;5522;42.696;23.494;2024-02-28T03:15:04;53725.16;;;-139.68;100.00
10940;BME280;5522;42.696;23.494;2024-02-28T03:17:31;53753.28;;;-139.68;100.00
10940;BME280;5522;42.696;23.494;2024-02-28T03:19:58;53727.16;;;-139.68;100.00
10940;BME280;5522;42.696;23.494;2024-02-28T03:22:25;53743.25;;;-139.68;100.00
10940;BME280;5522;42.696;23.494;2024-02-28T03:24:52;53743.25;;;-139.68;100.00
10940;BME280;5522;42.696;23.494;2024-02-28T03:27:18;53735.19;;;-139.68;100.00
10940;BME280;5522;42.696;23.494;2024-02-28T03:29:45;53690.97;;;-139.68;100.00
10940;BME280;5522;42.696;23.494;2024-02-28T03:32:13;53739.22;;;-139.68;100.00
10940;BME280;5522;42.696;23.494;2024-02-28T03:34:40;53693.00;;;-139.68;100.00
10940;BME280;5522;42.696;23.494;2024-02-28T03:37:07;53707.06;;;-139.68;100.00
10940;BME280;5522;42.696;23.494;2024-02-28T03:39:34;53745.25;;;-139.68;100.00
10940;BME280;5522;42.696;23.494;2024-02-28T03:42:00;53715.09;;;-139.68;100.00
10940;BME280;5522;42.696;23.494;2024-02-28T03:44:27;53721.13;;;-139.68;100.00
10940;BME280;5522;42.696;23.494;2024-02-28T03:46:54;53727.16;;;-139.68;100.00
10940;BME280;5522;42.696;23.494;2024-02-28T03:49:22;53707.06;;;-139.68;100.00
10940;BME280;5522;42.696;23.494;2024-02-28T03:51:49;53701.03;;;-139.68;100.00
10940;BME280;5522;42.696;23.494;2024-02-28T03:54:16;53731.19;;;-139.68;100.00
10940;BME280;5522;42.696;23.494;2024-02-28T03:56:43;53739.22;;;-139.68;100.00
10940;BME280;5522;42.696;23.494;2024-02-28T03:59:09;53715.09;;;-139.68;100.00
10940;BME280;5522;42.696;23.494;2024-02-28T04:01:36;53727.16;;;-139.68;100.00
10940;BME280;5522;42.696;23.494;2024-02-28T04:04:03;53727.16;;;-139.68;100.00
10940;BME280;5522;42.696;23.494;2024-02-28T04:06:31;53731.19;;;-139.68;100.00
10940;BME280;5522;42.696;23.494;2024-02-28T04:08:58;53731.19;;;-139.68;100.00
10940;BME280;5522;42.696;23.494;2024-02-28T04:11:25;53725.16;;;-139.68;100.00
10940;BME280;5522;42.696;23.494;2024-02-28T04:13:52;53717.13;;;-139.68;100.00
10940;BME280;5522;42.696;23.494;2024-02-28T04:16:19;53717.13;;;-139.68;100.00
10940;BME280;5522;42.696;23.494;2024-02-28T04:18:46;53725.16;;;-139.68;100.00
10940;BME280;5522;42.696;23.494;2024-02-28T04:21:12;53682.94;;;-139.68;100.00
10940;BME280;5522;42.696;23.494;2024-02-28T04:23:41;53699.03;;;-139.68;100.00
10940;BME280;5522;42.696;23.494;2024-02-28T04:26:09;53743.25;;;-139.68;100.00
10940;BME280;5522;42.696;23.494;2024-02-28T04:28:36;53733.19;;;-139.68;100.00
10940;BME280;5522;42.696;23.494;2024-02-28T04:31:03;53759.31;;;-139.68;100.00
10940;BME280;5522;42.696;23.494;2024-02-28T04:33:29;53715.09;;;-139.68;100.00
10940;BME280;5522;42.696;23.494;2024-02-28T04:35:56;53713.09;;;-139.68;100.00
10940;BME280;5522;42.696;23.494;2024-02-28T04:38:23;53743.25;;;-139.68;100.00
10940;BME280;5522;42.696;23.494;2024-02-28T04:40:51;53735.19;;;-139.68;100.00
10940;BME280;5522;42.696;23.494;2024-02-28T04:43:18;53743.25;;;-139.68;100.00
10940;BME280;5522;42.696;23.494;2024-02-28T04:45:45;53703.03;;;-139.68;100.00
10940;BME280;5522;42.696;23.494;2024-02-28T04:48:11;53753.28;;;-139.68;100.00
10940;BME280;5522;42.696;23.494;2024-02-28T04:50:39;53725.16;;;-139.68;100.00
10940;BME280;5522;42.696;23.494;2024-02-28T04:53:06;53711.09;;;-139.68;100.00
10940;BME280;5522;42.696;23.494;2024-02-28T04:55:32;53707.06;;;-139.68;100.00
10940;BME280;5522;42.696;23.494;2024-02-28T04:58:01;53747.25;;;-139.68;100.00
10940;BME280;5522;42.696;23.494;2024-02-28T05:00:27;53739.22;;;-139.68;100.00
10940;BME280;5522;42.696;23.494;2024-02-28T05:02:54;53727.16;;;-139.68;100.00
10940;BME280;5522;42.696;23.494;2024-02-28T05:05:21;53721.13;;;-139.68;100.00
10940;BME280;5522;42.696;23.494;2024-02-28T05:07:48;53723.13;;;-139.68;100.00
10940;BME280;5522;42.696;23.494;2024-02-28T05:10:15;53709.06;;;-139.68;100.00
10940;BME280;5522;42.696;23.494;2024-02-28T05:12:41;53707.06;;;-139.68;100.00
10940;BME280;5522;42.696;23.494;2024-02-28T05:15:10;53719.13;;;-139.68;100.00
10940;BME280;5522;42.696;23.494;2024-02-28T05:17:37;53747.25;;;-139.68;100.00
10940;BME280;5522;42.696;23.494;2024-02-28T05:20:05;53731.19;;;-139.68;100.00
10940;BME280;5522;42.696;23.494;2024-02-28T05:22:32;53711.09;;;-139.68;100.00
10940;BME280;5522;42.696;23.494;2024-02-28T05:24:59;53739.22;;;-139.68;100.00
10940;BME280;5522;42.696;23.494;2024-02-28T05:27:26;53771.38;;;-139.68;100.00
10940;BME280;5522;42.696;23.494;2024-02-28T05:29:53;53741.22;;;-139.68;100.00
10940;BME280;5522;42.696;23.494;2024-02-28T05:32:21;53727.16;;;-139.68;100.00
10940;BME280;5522;42.696;23.494;2024-02-28T05:34:48;53743.25;;;-139.68;100.00
10940;BME280;5522;42.696;23.494;2024-02-28T05:37:16;53719.13;;;-139.68;100.00
10940;BME280;5522;42.696;23.494;2024-02-28T05:39:43;53690.97;;;-139.68;100.00
10940;BME280;5522;42.696;23.494;2024-02-28T05:42:10;53757.31;;;-139.68;100.00
10940;BME280;5522;42.696;23.494;2024-02-28T05:44:37;53739.22;;;-139.68;100.00
10940;BME280;5522;42.696;23.494;2024-02-28T05:47:04;53761.34;;;-139.68;100.00
10940;BME280;5522;42.696;23.494;2024-02-28T05:49:32;53699.03;;;-139.68;100.00
10940;BME280;5522;42.696;23.494;2024-02-28T05:51:59;53735.19;;;-139.68;100.00
10940;BME280;5522;42.696;23.494;2024-02-28T05:54:26;53787.47;;;-139.68;100.00
10940;BME280;5522;42.696;23.494;2024-02-28T05:56:53;53763.34;;;-139.68;100.00
10940;BME280;5522;42.696;23.494;2024-02-28T05:59:20;53747.25;;;-139.68;100.00
10940;BME280;5522;42.696;23.494;2024-02-28T06:01:47;53753.28;;;-139.68;100.00
10940;BME280;5522;42.696;23.494;2024-02-28T06:04:13;53727.16;;;-139.68;100.00
10940;BME280;5522;42.696;23.494;2024-02-28T06:06:41;53733.19;;;-139.68;100.00
10940;BME280;5522;42.696;23.494;2024-02-28T06:09:08;53753.28;;;-139.68;100.00
10940;BME280;5522;42.696;23.494;2024-02-28T06:11:36;53791.50;;;-139.68;100.00
10940;BME280;5522;42.696;23.494;2024-02-28T06:14:02;53765.34;;;-139.68;100.00
10940;BME280;5522;42.696;23.494;2024-02-28T06:16:29;53775.41;;;-139.68;96.59
10940;BME280;5522;42.696;23.494;2024-02-28T06:18:56;53827.69;;;-139.68;92.63
10940;BME280;5522;42.696;23.494;2024-02-28T06:21:23;53839.75;;;-139.68;84.97
10940;BME280;5522;42.696;23.494;2024-02-28T06:23:51;53763.34;;;-139.68;80.21
10940;BME280;5522;42.696;23.494;2024-02-28T06:26:18;53805.56;;;-139.68;82.27
10940;BME280;5522;42.696;23.494;2024-02-28T06:28:45;53795.50;;;-139.68;80.16
10940;BME280;5522;42.696;23.494;2024-02-28T06:31:14;53783.44;;;-139.68;84.91
10940;BME280;5522;42.696;23.494;2024-02-28T06:33:41;53813.59;;;-139.68;82.73
10940;BME280;5522;42.696;23.494;2024-02-28T06:36:08;53759.31;;;-139.68;81.52
10940;BME280;5522;42.696;23.494;2024-02-28T06:38:35;53787.47;;;-139.68;76.32
10940;BME280;5522;42.696;23.494;2024-02-28T06:41:04;53747.25;;;-139.68;72.21
10940;BME280;5522;42.696;23.494;2024-02-28T06:43:33;53789.47;;;-139.68;66.35
10940;BME280;5522;42.696;23.494;2024-02-28T06:46:00;53823.66;;;-139.68;64.07
10940;BME280;5522;42.696;23.494;2024-02-28T06:48:28;53795.50;;;-139.68;61.70
10940;BME280;5522;42.696;23.494;2024-02-28T06:50:55;53797.53;;;-139.68;63.27
10940;BME280;5522;42.696;23.494;2024-02-28T06:53:23;53817.63;;;-139.68;61.50
10940;BME280;5522;42.696;23.494;2024-02-28T06:55:50;53783.44;;;-139.68;61.63
10940;BME280;5522;42.696;23.494;2024-02-28T06:58:18;53831.69;;;-139.68;63.30
10940;BME280;5522;42.696;23.494;2024-02-28T07:00:46;53787.47;;;-139.68;66.85
10940;BME280;5522;42.696;23.494;2024-02-28T07:03:12;53785.47;;;-139.68;69.71
10940;BME280;5522;42.696;23.494;2024-02-28T07:05:39;53809.59;;;-139.68;68.67
10940;BME280;5522;42.696;23.494;2024-02-28T07:08:06;53781.44;;;-139.68;74.73
10940;BME280;5522;42.696;23.494;2024-02-28T07:10:36;53795.50;;;-139.68;69.16
10940;BME280;5522;42.696;23.494;2024-02-28T07:13:03;53797.53;;;-139.68;67.83
10940;BME280;5522;42.696;23.494;2024-02-28T07:15:31;53775.41;;;-139.68;68.64
10940;BME280;5522;42.696;23.494;2024-02-28T07:17:57;53805.56;;;-139.68;67.05
10940;BME280;5522;42.696;23.494;2024-02-28T07:20:24;53775.41;;;-139.68;69.92
10940;BME280;5522;42.696;23.494;2024-02-28T07:22:52;53811.59;;;-139.68;70.90
10940;BME280;5522;42.696;23.494;2024-02-28T07:25:18;53799.53;;;-139.68;64.81
10940;BME280;5522;42.696;23.494;2024-02-28T07:27:45;53783.44;;;-139.68;61.04
10940;BME280;5522;42.696;23.494;2024-02-28T07:30:12;53791.50;;;-139.68;59.96
10940;BME280;5522;42.696;23.494;2024-02-28T07:32:41;53809.59;;;-139.68;60.60
10940;BME280;5522;42.696;23.494;2024-02-28T07:35:08;53819.63;;;-139.68;62.43
10940;BME280;5522;42.696;23.494;2024-02-28T07:37:35;53815.63;;;-139.68;63.48
10940;BME280;5522;42.696;23.494;2024-02-28T07:40:03;53799.53;;;-139.68;61.60
10940;BME280;5522;42.696;23.494;2024-02-28T07:42:30;53815.63;;;-139.68;65.67
10940;BME280;5522;42.696;23.494;2024-02-28T07:44:57;53813.59;;;-139.68;62.20
10940;BME280;5522;42.696;23.494;2024-02-28T07:47:24;53805.56;;;-139.68;57.13
10940;BME280;5522;42.696;23.494;2024-02-28T07:49:52;53819.63;;;-139.68;53.12
10940;BME280;5522;42.696;23.494;2024-02-28T07:52:19;53811.59;;;-139.68;51.34
10940;BME280;5522;42.696;23.494;2024-02-28T07:54:45;53819.63;;;-139.68;50.09
10940;BME280;5522;42.696;23.494;2024-02-28T07:57:14;53825.66;;;-139.68;50.10
10940;BME280;5522;42.696;23.494;2024-02-28T07:59:41;53831.69;;;-139.68;51.91
10940;BME280;5522;42.696;23.494;2024-02-28T08:02:08;53811.59;;;-139.68;53.80
10940;BME280;5522;42.696;23.494;2024-02-28T08:04:37;53815.63;;;-139.68;54.20
10940;BME280;5522;42.696;23.494;2024-02-28T08:07:05;53825.66;;;-139.68;54.19
10940;BME280;5522;42.696;23.494;2024-02-28T08:09:32;53855.81;;;-139.68;51.90
10940;BME280;5522;42.696;23.494;2024-02-28T08:11:58;53871.91;;;-139.68;49.57
10940;BME280;5522;42.696;23.494;2024-02-28T08:14:26;53831.69;;;-139.68;49.57
10940;BME280;5522;42.696;23.494;2024-02-28T08:16:53;53829.69;;;-139.68;49.80
10940;BME280;5522;42.696;23.494;2024-02-28T08:19:20;53805.56;;;-139.68;50.00
10940;BME280;5522;42.696;23.494;2024-02-28T08:21:47;53837.72;;;-139.68;48.70
10940;BME280;5522;42.696;23.494;2024-02-28T08:24:15;53847.78;;;-139.68;47.03
10940;BME280;5522;42.696;23.494;2024-02-28T08:26:42;53789.47;;;-139.68;49.20
10940;BME280;5522;42.696;23.494;2024-02-28T08:29:09;53827.69;;;-139.68;49.35
10940;BME280;5522;42.696;23.494;2024-02-28T08:31:40;53827.69;;;-139.68;48.99
10940;BME280;5522;42.696;23.494;2024-02-28T08:34:07;53827.69;;;-139.68;49.87
10940;BME280;5522;42.696;23.494;2024-02-28T08:36:34;53845.78;;;-139.68;45.90
10940;BME280;5522;42.696;23.494;2024-02-28T08:39:01;53847.78;;;-139.68;46.84
10940;BME280;5522;42.696;23.494;2024-02-28T08:41:32;53849.78;;;-139.68;44.83
10940;BME280;5522;42.696;23.494;2024-02-28T08:43:59;53815.63;;;-139.68;45.51
10940;BME280;5522;42.696;23.494;2024-02-28T08:46:26;53835.72;;;-139.68;44.73
10940;BME280;5522;42.696;23.494;2024-02-28T08:48:53;53831.69;;;-139.68;43.81
10940;BME280;5522;42.696;23.494;2024-02-28T08:51:19;53827.69;;;-139.68;44.20
10940;BME280;5522;42.696;23.494;2024-02-28T08:53:47;53859.84;;;-139.68;46.38
10940;BME280;5522;42.696;23.494;2024-02-28T08:56:13;53835.72;;;-139.68;45.92
10940;BME280;5522;42.696;23.494;2024-02-28T08:58:42;53827.69;;;-139.68;44.20
10940;BME280;5522;42.696;23.494;2024-02-28T09:01:13;53815.63;;;-139.68;45.68
10940;BME280;5522;42.696;23.494;2024-02-28T09:03:40;53867.88;;;-139.68;43.85
10940;BME280;5522;42.696;23.494;2024-02-28T09:06:10;53773.41;;;-139.68;42.21
10940;BME280;5522;42.696;23.494;2024-02-28T09:08:45;53791.50;;;-139.68;40.84
10940;BME280;5522;42.696;23.494;2024-02-28T09:11:14;53861.84;;;-139.68;39.90
10940;BME280;5522;42.696;23.494;2024-02-28T09:13:55;53829.69;;;-139.68;40.61
10940;BME280;5522;42.696;23.494;2024-02-28T09:16:23;53839.75;;;-139.68;41.50
10940;BME280;5522;42.696;23.494;2024-02-28T09:18:55;53783.44;;;-139.68;42.57
10940;BME280;5522;42.696;23.494;2024-02-28T09:21:22;53805.56;;;-139.68;41.92
10940;BME280;5522;42.696;23.494;2024-02-28T09:23:48;53819.63;;;-139.68;41.97
10940;BME280;5522;42.696;23.494;2024-02-28T09:26:15;53833.72;;;-139.68;43.33
10940;BME280;5522;42.696;23.494;2024-02-28T09:28:42;53875.94;;;-139.68;44.82
10940;BME280;5522;42.696;23.494;2024-02-28T09:31:10;53871.91;;;-139.68;46.35
10940;BME280;5522;42.696;23.494;2024-02-28T09:33:37;53847.78;;;-139.68;47.02
10940;BME280;5522;42.696;23.494;2024-02-28T09:36:05;53837.72;;;-139.68;45.46
10940;BME280;5522;42.696;23.494;2024-02-28T09:38:32;53885.97;;;-139.68;43.32
10940;BME280;5522;42.696;23.494;2024-02-28T09:41:00;53823.66;;;-139.68;45.13
10940;BME280;5522;42.696;23.494;2024-02-28T09:43:29;53861.84;;;-139.68;44.64
10940;BME280;5522;42.696;23.494;2024-02-28T09:45:59;53865.88;;;-139.68;43.14
10940;BME280;5522;42.696;23.494;2024-02-28T09:48:28;53855.81;;;-139.68;41.18
10940;BME280;5522;42.696;23.494;2024-02-28T09:50:56;53861.84;;;-139.68;42.80
10940;BME280;5522;42.696;23.494;2024-02-28T09:53:23;53861.84;;;-139.68;42.08
10940;BME280;5522;42.696;23.494;2024-02-28T09:55:50;53851.81;;;-139.68;40.76
10940;BME280;5522;42.696;23.494;2024-02-28T09:58:20;53871.91;;;-139.68;39.93
10940;BME280;5522;42.696;23.494;2024-02-28T10:00:56;53851.81;;;-139.68;39.76
10940;BME280;5522;42.696;23.494;2024-02-28T10:03:27;53833.72;;;-139.68;39.54
10940;BME280;5522;42.696;23.494;2024-02-28T10:05:55;53835.72;;;-139.68;40.12
10940;BME280;5522;42.696;23.494;2024-02-28T10:08:24;53781.44;;;-139.68;39.10
10940;BME280;5522;42.696;23.494;2024-02-28T10:10:54;53847.78;;;-139.68;39.01
10940;BME280;5522;42.696;23.494;2024-02-28T10:13:23;53855.81;;;-139.68;39.44
10940;BME280;5522;42.696;23.494;2024-02-28T10:15:52;53803.56;;;-139.68;38.99
10940;BME280;5522;42.696;23.494;2024-02-28T10:18:20;53839.75;;;-139.68;39.07
10940;BME280;5522;42.696;23.494;2024-02-28T10:20:54;53837.72;;;-139.68;40.34
10940;BME280;5522;42.696;23.494;2024-02-28T10:23:21;53859.84;;;-139.68;40.14
10940;BME280;5522;42.696;23.494;2024-02-28T10:25:54;53831.69;;;-139.68;40.41
10940;BME280;5522;42.696;23.494;2024-02-28T10:28:21;53845.78;;;-139.68;40.93
10940;BME280;5522;42.696;23.494;2024-02-28T10:30:50;53819.63;;;-139.68;42.09
10940;BME280;5522;42.696;23.494;2024-02-28T10:33:26;53851.81;;;-139.68;42.85
10940;BME280;5522;42.696;23.494;2024-02-28T10:36:03;53849.78;;;-139.68;43.65
10940;BME280;5522;42.696;23.494;2024-02-28T10:38:31;53829.69;;;-139.68;44.63
10940;BME280;5522;42.696;23.494;2024-02-28T10:41:02;53863.88;;;-139.68;43.58
10940;BME280;5522;42.696;23.494;2024-02-28T10:43:31;53875.94;;;-139.68;42.93
10940;BME280;5522;42.696;23.494;2024-02-28T10:46:00;53831.69;;;-139.68;42.28
10940;BME280;5522;42.696;23.494;2024-02-28T10:48:30;53831.69;;;-139.68;42.18
10940;BME280;5522;42.696;23.494;2024-02-28T10:50:57;53847.78;;;-139.68;41.91
10940;BME280;5522;42.696;23.494;2024-02-28T10:53:32;53851.81;;;-139.68;41.18
10940;BME280;5522;42.696;23.494;2024-02-28T10:56:03;53849.78;;;-139.68;39.96
10940;BME280;5522;42.696;23.494;2024-02-28T10:58:34;53831.69;;;-139.68;38.89
10940;BME280;5522;42.696;23.494;2024-02-28T11:01:02;53811.59;;;-139.68;36.32
10940;BME280;5522;42.696;23.494;2024-02-28T11:03:30;53831.69;;;-139.68;35.59
10940;BME280;5522;42.696;23.494;2024-02-28T11:05:56;53859.84;;;-139.68;34.04
10940;BME280;5522;42.696;23.494;2024-02-28T11:08:24;53841.75;;;-139.68;33.07
10940;BME280;5522;42.696;23.494;2024-02-28T11:10:57;53843.75;;;-139.68;33.26
10940;BME280;5522;42.696;23.494;2024-02-28T11:13:25;53829.69;;;-139.68;32.28
10940;BME280;5522;42.696;23.494;2024-02-28T11:15:52;53879.94;;;-139.68;32.76
10940;BME280;5522;42.696;23.494;2024-02-28T11:18:20;53885.97;;;-139.68;32.89
10940;BME280;5522;42.696;23.494;2024-02-28T11:20:47;53900.06;;;-139.68;34.17
10940;BME280;5522;42.696;23.494;2024-02-28T11:23:17;53855.81;;;-139.68;34.55
10940;BME280;5522;42.696;23.494;2024-02-28T11:25:44;53902.06;;;-139.68;36.55
10940;BME280;5522;42.696;23.494;2024-02-28T11:28:12;53865.88;;;-139.68;36.78
10940;BME280;5522;42.696;23.494;2024-02-28T11:30:41;53892.00;;;-139.68;38.07
10940;BME280;5522;42.696;23.494;2024-02-28T11:33:08;53851.81;;;-139.68;39.06
10940;BME280;5522;42.696;23.494;2024-02-28T11:35:34;53873.91;;;-139.68;39.76
10940;BME280;5522;42.696;23.494;2024-02-28T11:38:01;53900.06;;;-139.68;39.89
10940;BME280;5522;42.696;23.494;2024-02-28T11:40:28;53904.06;;;-139.68;39.53
10940;BME280;5522;42.696;23.494;2024-02-28T11:42:55;53924.16;;;-139.68;39.59
10940;BME280;5522;42.696;23.494;2024-02-28T11:45:26;53898.03;;;-139.68;39.71
10940;BME280;5522;42.696;23.494;2024-02-28T11:47:52;53871.91;;;-139.68;41.45
10940;BME280;5522;42.696;23.494;2024-02-28T11:50:19;53912.13;;;-139.68;40.21
10940;BME280;5522;42.696;23.494;2024-02-28T11:52:46;53871.91;;;-139.68;40.53
10940;BME280;5522;42.696;23.494;2024-02-28T11:55:13;53869.91;;;-139.68;41.34
10940;BME280;5522;42.696;23.494;2024-02-28T11:57:40;53910.09;;;-139.68;40.19
10940;BME280;5522;42.696;23.494;2024-02-28T12:00:08;53914.13;;;-139.68;40.51
10940;BME280;5522;42.696;23.494;2024-02-28T12:02:39;53883.97;;;-139.68;41.11
10940;BME280;5522;42.696;23.494;2024-02-28T12:05:07;53918.16;;;-139.68;41.85
10940;BME280;5522;42.696;23.494;2024-02-28T12:07:34;53888.00;;;-139.68;41.07
10940;BME280;5522;42.696;23.494;2024-02-28T12:10:02;53910.09;;;-139.68;41.45
10940;BME280;5522;42.696;23.494;2024-02-28T12:12:28;53926.19;;;-139.68;41.49
10940;BME280;5522;42.696;23.494;2024-02-28T12:14:58;53855.81;;;-139.68;41.54
10940;BME280;5522;42.696;23.494;2024-02-28T12:17:26;53912.13;;;-139.68;41.63
10940;BME280;5522;42.696;23.494;2024-02-28T12:19:54;53851.81;;;-139.68;41.34
10940;BME280;5522;42.696;23.494;2024-02-28T12:22:21;53871.91;;;-139.68;41.60
10940;BME280;5522;42.696;23.494;2024-02-28T12:24:52;53883.97;;;-139.68;41.30
10940;BME280;5522;42.696;23.494;2024-02-28T12:27:19;53883.97;;;-139.68;41.23
10940;BME280;5522;42.696;23.494;2024-02-28T12:29:46;53843.75;;;-139.68;40.82
10940;BME280;5522;42.696;23.494;2024-02-28T12:32:13;53900.06;;;-139.68;40.43
10940;BME280;5522;42.696;23.494;2024-02-28T12:34:42;53902.06;;;-139.68;40.28
10940;BME280;5522;42.696;23.494;2024-02-28T12:37:11;53892.00;;;-139.68;40.14
10940;BME280;5522;42.696;23.494;2024-02-28T12:39:38;53918.16;;;-139.68;40.73
10940;BME280;5522;42.696;23.494;2024-02-28T12:42:07;53892.00;;;-139.68;40.86